createdAt,value
2022-12-25T00:02:26.649Z,95518.16
2022-12-25T00:04:54.812Z,95521.81
2022-12-25T00:07:23.034Z,95528.42
2022-12-25T00:09:51.008Z,95522.64
2022-12-25T00:12:21.125Z,95526.84
2022-12-25T00:14:49.116Z,95533.45
2022-12-25T00:17:17.246Z,95534.35
2022-12-25T00:19:45.329Z,95537.23
2022-12-25T00:22:13.498Z,95545.29
2022-12-25T00:24:41.523Z,95546.98
2022-12-25T00:27:09.609Z,95547.75
2022-12-25T00:29:37.705Z,95548.11
2022-12-25T00:32:05.710Z,95551.89
2022-12-25T00:34:33.904Z,95558.86
2022-12-25T00:37:01.904Z,95563.87
2022-12-25T00:39:29.910Z,95569.40
2022-12-25T00:42:16.832Z,95570.67
2022-12-25T00:44:46.408Z,95576.41
2022-12-25T00:47:15.771Z,95581.48
2022-12-25T00:49:44.067Z,95583.69
2022-12-25T00:52:12.173Z,95587.27
2022-12-25T00:54:40.205Z,95582.68
2022-12-25T00:57:08.246Z,95583.02
2022-12-25T00:59:36.333Z,95583.98
2022-12-25T01:02:23.322Z,95580.81
2022-12-25T01:04:54.777Z,95584.48
2022-12-25T01:07:25.336Z,95582.46
2022-12-25T01:10:12.475Z,95575.20
2022-12-25T01:12:42.561Z,95574.41
2022-12-25T01:15:12.317Z,95570.06
2022-12-25T01:17:41.547Z,95570.20
2022-12-25T01:20:11.532Z,95574.95
2022-12-25T01:22:39.898Z,95577.21
2022-12-25T01:25:10.780Z,95576.02
2022-12-25T01:27:41.153Z,95577.27
2022-12-25T01:30:10.103Z,95576.95
2022-12-25T01:32:38.493Z,95580.98
2022-12-25T01:35:06.963Z,95576.58
2022-12-25T01:37:35.179Z,95581.11
2022-12-25T01:40:03.984Z,95583.83
2022-12-25T01:42:32.135Z,95587.58
2022-12-25T01:45:36.993Z,95582.41
2022-12-25T01:48:12.039Z,95581.55
2022-12-25T01:50:44.589Z,95583.64
2022-12-25T01:53:13.427Z,95589.14
2022-12-25T01:55:45.506Z,95590.88
2022-12-25T01:58:14.398Z,95587.27
2022-12-25T02:00:42.833Z,95588.86
2022-12-25T02:03:11.076Z,95592.36
2022-12-25T02:05:39.965Z,95587.06
2022-12-25T02:08:09.280Z,95584.31
2022-12-25T02:10:39.213Z,95587.42
2022-12-25T02:13:08.436Z,95590.31
2022-12-25T02:15:48.341Z,95591.13
2022-12-25T02:18:29.307Z,95587.52
2022-12-25T02:21:30.027Z,95591.19
2022-12-25T02:24:20.618Z,95589.55
2022-12-25T02:27:14.599Z,95594.30
2022-12-25T02:30:07.509Z,95594.59
2022-12-25T02:32:47.251Z,95591.13
2022-12-25T02:35:24.216Z,95591.55
2022-12-25T02:38:02.330Z,95595.25
2022-12-25T02:40:56.113Z,95602.95
2022-12-25T02:43:57.362Z,95605.95
2022-12-25T02:46:45.981Z,95609.40
2022-12-25T02:49:38.219Z,95611.08
2022-12-25T02:52:31.488Z,95614.08
2022-12-25T02:55:22.897Z,95612.58
2022-12-25T02:58:13.285Z,95614.34
2022-12-25T03:01:11.217Z,95611.74
2022-12-25T03:04:00.321Z,95615.63
2022-12-25T03:06:45.849Z,95621.59
2022-12-25T03:09:41.638Z,95622.75
2022-12-25T03:12:27.699Z,95624.30
2022-12-25T03:15:14.644Z,95621.98
2022-12-25T03:17:43.341Z,95619.90
2022-12-25T03:20:30.158Z,95617.62
2022-12-25T03:23:17.343Z,95619.51
2022-12-25T03:26:03.966Z,95628.98
2022-12-25T03:28:32.056Z,95640.66
2022-12-25T03:31:17.397Z,95647.13
2022-12-25T03:34:19.779Z,95654.48
2022-12-25T03:37:43.528Z,95652.17
2022-12-25T03:40:51.904Z,95661.41
2022-12-25T03:43:44.678Z,95662.72
2022-12-25T03:46:35.065Z,95662.06
2022-12-25T03:49:33.684Z,95664.45
2022-12-25T03:52:21.624Z,95669.41
2022-12-25T03:55:13.108Z,95668.35
2022-12-25T03:57:59.617Z,95662.05
2022-12-25T04:00:46.286Z,95657.09
2022-12-25T04:03:33.040Z,95655.30
2022-12-25T04:06:20.292Z,95656.07
2022-12-25T04:09:06.733Z,95658.92
2022-12-25T04:12:00.477Z,95671.39
2022-12-25T04:14:49.229Z,95675.31
2022-12-25T04:17:36.100Z,95683.55
2022-12-25T04:20:23.254Z,95692.05
2022-12-25T04:23:09.837Z,95696.55
2022-12-25T04:25:56.331Z,95695.23
2022-12-25T04:28:56.750Z,95694.91
2022-12-25T04:31:43.356Z,95700.23
2022-12-25T04:34:37.958Z,95705.86
2022-12-25T04:37:05.963Z,95707.27
2022-12-25T04:39:34.260Z,95706.27
2022-12-25T04:42:02.475Z,95710.34
2022-12-25T04:44:30.461Z,95717.34
2022-12-25T04:46:58.497Z,95718.62
2022-12-25T04:49:26.756Z,95720.70
2022-12-25T04:51:54.843Z,95726.51
2022-12-25T04:54:23.345Z,95722.94
2022-12-25T04:56:51.362Z,95715.46
2022-12-25T04:59:19.398Z,95716.23
2022-12-25T05:01:47.562Z,95717.98
2022-12-25T05:04:15.853Z,95723.06
2022-12-25T05:06:43.971Z,95721.30
2022-12-25T05:09:12.055Z,95725.06
2022-12-25T05:11:40.055Z,95725.23
2022-12-25T05:14:08.079Z,95726.70
2022-12-25T05:16:36.379Z,95728.33
2022-12-25T05:19:04.641Z,95729.79
2022-12-25T05:21:32.684Z,95736.41
2022-12-25T05:24:00.762Z,95732.94
2022-12-25T05:26:29.058Z,95731.52
2022-12-25T05:28:57.195Z,95731.91
2022-12-25T05:31:25.287Z,95734.19
2022-12-25T05:33:53.391Z,95734.19
2022-12-25T05:36:21.391Z,95738.54
2022-12-25T05:38:50.422Z,95733.13
2022-12-25T05:41:18.653Z,95734.36
2022-12-25T05:43:46.841Z,95732.01
2022-12-25T05:46:15.084Z,95732.35
2022-12-25T05:48:43.547Z,95734.25
2022-12-25T05:51:14.237Z,95737.84
2022-12-25T05:53:43.533Z,95742.12
2022-12-25T05:56:12.336Z,95747.90
2022-12-25T05:58:40.862Z,95754.97
2022-12-25T06:01:19.680Z,95754.34
2022-12-25T06:03:47.975Z,95755.52
2022-12-25T06:06:16.249Z,95756.02
2022-12-25T06:08:44.434Z,95756.64
2022-12-25T06:11:14.487Z,95761.14
2022-12-25T06:13:43.284Z,95765.48
2022-12-25T06:16:12.054Z,95766.65
2022-12-25T06:18:44.852Z,95772.05
2022-12-25T06:21:15.101Z,95775.88
2022-12-25T06:23:43.546Z,95781.05
2022-12-25T06:26:14.829Z,95790.02
2022-12-25T06:28:43.684Z,95791.05
2022-12-25T06:31:13.517Z,95789.09
2022-12-25T06:33:42.792Z,95792.17
2022-12-25T06:36:19.887Z,95787.21
2022-12-25T06:38:48.214Z,95787.09
2022-12-25T06:41:21.962Z,95792.96
2022-12-25T06:43:56.124Z,95794.92
2022-12-25T06:46:26.487Z,95803.29
2022-12-25T06:48:55.675Z,95804.90
2022-12-25T06:51:26.581Z,95808.45
2022-12-25T06:53:55.902Z,95812.16
2022-12-25T06:56:27.444Z,95813.80
2022-12-25T06:58:58.754Z,95821.17
2022-12-25T07:01:36.030Z,95825.73
2022-12-25T07:04:07.891Z,95831.32
2022-12-25T07:06:35.863Z,95837.83
2022-12-25T07:09:03.954Z,95835.08
2022-12-25T07:11:32.122Z,95836.38
2022-12-25T07:14:00.161Z,95836.34
2022-12-25T07:16:28.319Z,95840.65
2022-12-25T07:18:56.339Z,95851.35
2022-12-25T07:21:24.430Z,95858.51
2022-12-25T07:23:52.682Z,95866.29
2022-12-25T07:26:21.052Z,95862.86
2022-12-25T07:28:49.071Z,95866.92
2022-12-25T07:31:18.189Z,95865.68
2022-12-25T07:33:46.334Z,95864.92
2022-12-25T07:36:15.403Z,95868.44
2022-12-25T07:38:44.216Z,95870.15
2022-12-25T07:41:13.248Z,95874.05
2022-12-25T07:43:41.848Z,95880.41
2022-12-25T07:46:11.397Z,95883.20
2022-12-25T07:48:39.721Z,95882.52
2022-12-25T07:51:12.102Z,95879.40
2022-12-25T07:53:41.018Z,95881.85
2022-12-25T07:56:12.151Z,95885.17
2022-12-25T07:58:41.193Z,95886.56
2022-12-25T08:01:20.304Z,95889.13
2022-12-25T08:03:54.116Z,95888.78
2022-12-25T08:06:26.885Z,95881.39
2022-12-25T08:09:02.479Z,95878.14
2022-12-25T08:11:30.566Z,95885.92
2022-12-25T08:13:58.837Z,95895.60
2022-12-25T08:16:26.936Z,95901.02
2022-12-25T08:18:55.081Z,95907.38
2022-12-25T08:21:23.091Z,95911.98
2022-12-25T08:23:51.194Z,95907.12
2022-12-25T08:26:21.489Z,95908.44
2022-12-25T08:28:50.477Z,95907.03
2022-12-25T08:31:28.064Z,95902.01
2022-12-25T08:33:58.103Z,95897.45
2022-12-25T08:36:26.700Z,95902.90
2022-12-25T08:39:02.169Z,95904.65
2022-12-25T08:41:32.165Z,95906.85
2022-12-25T08:44:00.327Z,95907.30
2022-12-25T08:46:28.409Z,95914.67
2022-12-25T08:48:56.972Z,95914.69
2022-12-25T08:51:26.294Z,95915.11
2022-12-25T08:53:59.565Z,95917.30
2022-12-25T08:56:29.303Z,95918.37
2022-12-25T08:58:57.656Z,95918.83
2022-12-25T09:01:25.877Z,95916.87
2022-12-25T09:03:53.931Z,95916.81
2022-12-25T09:06:21.948Z,95923.66
2022-12-25T09:08:50.186Z,95934.93
2022-12-25T09:11:19.959Z,95941.48
2022-12-25T09:13:48.928Z,95932.19
2022-12-25T09:16:18.256Z,95913.71
2022-12-25T09:18:46.337Z,95912.81
2022-12-25T09:21:16.082Z,95928.33
2022-12-25T09:23:44.744Z,95928.71
2022-12-25T09:26:16.136Z,95924.81
2022-12-25T09:28:50.760Z,95927.59
2022-12-25T09:31:22.289Z,95926.48
2022-12-25T09:33:51.804Z,95928.27
2022-12-25T09:36:23.449Z,95934.09
2022-12-25T09:38:52.809Z,95933.98
2022-12-25T09:41:23.857Z,95929.89
2022-12-25T09:43:58.586Z,95935.95
2022-12-25T09:46:36.922Z,95937.02
2022-12-25T09:49:27.279Z,95933.05
2022-12-25T09:52:02.798Z,95934.27
2022-12-25T09:54:37.122Z,95930.30
2022-12-25T09:57:05.973Z,95932.23
2022-12-25T09:59:34.007Z,95934.31
2022-12-25T10:02:37.122Z,95928.98
2022-12-25T10:05:27.534Z,95922.91
2022-12-25T10:08:30.448Z,95914.19
2022-12-25T10:11:25.843Z,95923.66
2022-12-25T10:14:16.550Z,95919.84
2022-12-25T10:17:00.001Z,95917.83
2022-12-25T10:19:44.068Z,95922.55
2022-12-25T10:22:30.353Z,95920.92
2022-12-25T10:25:01.064Z,95918.45
2022-12-25T10:27:38.130Z,95918.27
2022-12-25T10:30:17.157Z,95919.68
2022-12-25T10:32:47.047Z,95921.51
2022-12-25T10:35:21.213Z,95920.68
2022-12-25T10:38:01.108Z,95921.58
2022-12-25T10:40:44.338Z,95924.63
2022-12-25T10:43:18.343Z,95926.56
2022-12-25T10:45:48.994Z,95922.30
2022-12-25T10:48:24.197Z,95927.85
2022-12-25T10:50:52.702Z,95928.89
2022-12-25T10:53:24.444Z,95928.66
2022-12-25T10:56:01.545Z,95918.75
2022-12-25T10:58:31.747Z,95915.98
2022-12-25T11:01:07.184Z,95914.59
2022-12-25T11:03:39.241Z,95914.51
2022-12-25T11:06:21.336Z,95911.17
2022-12-25T11:08:59.189Z,95910.50
2022-12-25T11:11:29.191Z,95914.21
2022-12-25T11:14:02.218Z,95920.70
2022-12-25T11:16:32.900Z,95925.57
2022-12-25T11:19:01.160Z,95927.02
2022-12-25T11:21:35.133Z,95928.63
2022-12-25T11:24:05.983Z,95924.81
2022-12-25T11:26:49.220Z,95918.84
2022-12-25T11:29:43.378Z,95920.00
2022-12-25T11:32:19.335Z,95927.10
2022-12-25T11:34:49.171Z,95932.24
2022-12-25T11:37:24.020Z,95931.79
2022-12-25T11:39:52.166Z,95939.30
2022-12-25T11:42:29.878Z,95942.67
2022-12-25T11:45:24.293Z,95937.13
2022-12-25T11:48:01.138Z,95939.46
2022-12-25T11:50:30.962Z,95946.14
2022-12-25T11:53:03.402Z,95945.02
2022-12-25T11:55:46.407Z,95945.55
2022-12-25T11:58:20.375Z,95946.28
2022-12-25T12:00:51.964Z,95947.61
2022-12-25T12:03:31.730Z,95942.06
2022-12-25T12:06:15.219Z,95945.05
2022-12-25T12:08:44.529Z,95948.69
2022-12-25T12:11:25.493Z,95947.82
2022-12-25T12:13:59.209Z,95953.47
2022-12-25T12:16:27.703Z,95958.00
2022-12-25T12:18:55.843Z,95962.34
2022-12-25T12:21:30.258Z,95960.95
2022-12-25T12:24:17.130Z,95963.79
2022-12-25T12:26:47.277Z,95965.89
2022-12-25T12:29:43.754Z,95969.34
2022-12-25T12:32:20.859Z,95978.00
2022-12-25T12:34:52.044Z,95972.39
2022-12-25T12:37:31.742Z,95968.24
2022-12-25T12:40:00.188Z,95963.58
2022-12-25T12:42:31.895Z,95964.50
2022-12-25T12:45:10.299Z,95966.09
2022-12-25T12:47:43.226Z,95961.39
2022-12-25T12:50:40.088Z,95967.77
2022-12-25T12:53:22.412Z,95970.61
2022-12-25T12:55:52.061Z,95975.61
2022-12-25T12:58:36.127Z,95972.92
2022-12-25T13:01:32.153Z,95967.54
2022-12-25T13:04:09.509Z,95977.79
2022-12-25T13:06:46.309Z,95974.70
2022-12-25T13:09:28.555Z,95974.97
2022-12-25T13:11:57.045Z,95975.25
2022-12-25T13:14:25.647Z,95971.66
2022-12-25T13:16:54.912Z,95971.08
2022-12-25T13:19:26.973Z,95968.38
2022-12-25T13:22:01.045Z,95972.86
2022-12-25T13:24:32.194Z,95982.35
2022-12-25T13:27:01.024Z,95980.24
2022-12-25T13:29:32.720Z,95974.96
2022-12-25T13:32:03.856Z,95975.62
2022-12-25T13:34:36.563Z,95981.45
2022-12-25T13:37:16.682Z,95977.71
2022-12-25T13:39:50.298Z,95979.81
2022-12-25T13:42:22.820Z,95977.63
2022-12-25T13:44:53.817Z,95978.13
2022-12-25T13:47:35.902Z,95970.97
2022-12-25T13:50:20.587Z,95971.58
2022-12-25T13:52:49.174Z,95975.83
2022-12-25T13:55:21.144Z,95974.05
2022-12-25T13:58:04.642Z,95982.16
2022-12-25T14:00:32.585Z,95986.97
2022-12-25T14:03:01.080Z,95989.61
2022-12-25T14:05:29.490Z,95987.27
2022-12-25T14:08:00.832Z,95992.23
2022-12-25T14:10:38.667Z,95990.63
2022-12-25T14:13:12.934Z,95991.08
2022-12-25T14:15:42.159Z,95990.98
2022-12-25T14:18:21.778Z,95998.73
2022-12-25T14:21:21.312Z,96006.08
2022-12-25T14:23:50.460Z,96012.95
2022-12-25T14:26:28.776Z,96017.55
2022-12-25T14:29:05.848Z,96020.80
2022-12-25T14:31:35.509Z,96019.53
2022-12-25T14:34:05.909Z,96022.52
2022-12-25T14:36:34.603Z,96023.98
2022-12-25T14:39:06.292Z,96019.83
2022-12-25T14:41:42.130Z,96027.35
2022-12-25T14:44:31.725Z,96030.20
2022-12-25T14:47:05.147Z,96034.69
2022-12-25T14:49:33.253Z,96034.10
2022-12-25T14:52:24.911Z,96034.39
2022-12-25T14:54:58.342Z,96041.36
2022-12-25T14:57:34.026Z,96039.18
2022-12-25T15:00:08.070Z,96034.98
2022-12-25T15:02:46.015Z,96043.86
2022-12-25T15:05:25.898Z,96054.82
2022-12-25T15:08:10.347Z,96061.48
2022-12-25T15:13:30.067Z,96069.16
2022-12-25T15:16:13.658Z,96074.05
2022-12-25T15:18:46.158Z,96080.35
2022-12-25T15:21:25.836Z,96080.77
2022-12-25T15:23:55.973Z,96086.92
2022-12-25T15:26:25.580Z,96090.48
2022-12-25T15:28:53.601Z,96092.85
2022-12-25T15:31:23.494Z,96092.67
2022-12-25T15:33:52.972Z,96094.88
2022-12-25T15:36:21.884Z,96094.02
2022-12-25T15:38:50.337Z,96093.35
2022-12-25T15:41:53.030Z,96100.02
2022-12-25T15:44:21.331Z,96101.79
2022-12-25T15:46:50.009Z,96101.05
2022-12-25T15:49:18.762Z,96101.61
2022-12-25T15:51:47.209Z,96100.60
2022-12-25T15:54:15.547Z,96107.98
2022-12-25T15:56:45.310Z,96111.42
2022-12-25T15:59:15.840Z,96122.11
2022-12-25T16:01:48.491Z,96131.00
2022-12-25T16:04:16.614Z,96134.90
2022-12-25T16:06:44.903Z,96131.69
2022-12-25T16:09:14.217Z,96122.17
2022-12-25T16:11:43.493Z,96113.31
2022-12-25T16:14:12.553Z,96113.73
2022-12-25T16:16:41.901Z,96122.70
2022-12-25T16:19:10.042Z,96122.79
2022-12-25T16:21:42.416Z,96122.94
2022-12-25T16:24:10.972Z,96116.73
2022-12-25T16:26:39.040Z,96109.86
2022-12-25T16:29:07.860Z,96106.14
2022-12-25T16:31:37.787Z,96102.81
2022-12-25T16:34:09.059Z,96102.05
2022-12-25T16:36:39.266Z,96102.66
2022-12-25T16:39:08.542Z,96105.91
2022-12-25T16:41:36.616Z,96103.32
2022-12-25T16:44:10.222Z,96099.19
2022-12-25T16:46:40.282Z,96099.96
2022-12-25T16:49:08.943Z,96101.85
2022-12-25T16:51:37.366Z,96106.63
2022-12-25T16:54:05.740Z,96111.73
2022-12-25T16:56:36.740Z,96116.13
2022-12-25T16:59:05.136Z,96112.89
2022-12-25T17:01:33.247Z,96103.78
2022-12-25T17:04:01.648Z,96096.60
2022-12-25T17:06:29.897Z,96095.00
2022-12-25T17:08:59.803Z,96081.77
2022-12-25T17:11:30.820Z,96073.73
2022-12-25T17:14:02.532Z,96069.29
2022-12-25T17:16:34.641Z,96070.11
2022-12-25T17:19:08.014Z,96076.74
2022-12-25T17:21:38.386Z,96091.00
2022-12-25T17:24:07.287Z,96097.30
2022-12-25T17:26:35.546Z,96101.50
2022-12-25T17:29:03.819Z,96109.55
2022-12-25T17:31:32.170Z,96119.25
2022-12-25T17:34:01.806Z,96120.42
2022-12-25T17:36:30.545Z,96117.09
2022-12-25T17:39:00.949Z,96118.55
2022-12-25T17:41:29.117Z,96119.56
2022-12-25T17:43:57.732Z,96117.02
2022-12-25T17:46:27.439Z,96107.23
2022-12-25T17:48:56.347Z,96093.45
2022-12-25T17:51:25.642Z,96096.46
2022-12-25T17:53:54.955Z,96087.39
2022-12-25T17:56:23.657Z,96087.02
2022-12-25T17:58:52.836Z,96088.01
2022-12-25T18:01:21.731Z,96089.87
2022-12-25T18:03:50.441Z,96092.13
2022-12-25T18:06:23.730Z,96104.48
2022-12-25T18:08:53.825Z,96105.95
2022-12-25T18:11:23.546Z,96107.42
2022-12-25T18:13:52.374Z,96105.19
2022-12-25T18:16:22.426Z,96108.75
2022-12-25T18:18:52.486Z,96103.48
2022-12-25T18:21:21.955Z,96107.00
2022-12-25T18:23:50.632Z,96104.64
2022-12-25T18:26:19.907Z,96110.06
2022-12-25T18:28:48.874Z,96112.25
2022-12-25T18:31:18.502Z,96117.77
2022-12-25T18:33:46.503Z,96119.30
2022-12-25T18:36:15.675Z,96115.69
2022-12-25T18:38:43.617Z,96116.43
2022-12-25T18:41:11.890Z,96113.80
2022-12-25T18:43:53.583Z,96113.35
2022-12-25T18:46:25.526Z,96114.14
2022-12-25T18:48:55.775Z,96116.38
2022-12-25T18:51:24.248Z,96117.46
2022-12-25T18:53:52.144Z,96113.88
2022-12-25T18:56:20.992Z,96119.59
2022-12-25T18:58:48.964Z,96118.92
2022-12-25T19:01:18.751Z,96120.14
2022-12-25T19:03:49.441Z,96122.61
2022-12-25T19:06:18.220Z,96122.34
2022-12-25T19:08:46.603Z,96117.55
2022-12-25T19:11:14.945Z,96120.48
2022-12-25T19:13:43.305Z,96121.88
2022-12-25T19:16:11.892Z,96128.08
2022-12-25T19:18:40.244Z,96126.66
2022-12-25T19:21:09.429Z,96123.07
2022-12-25T19:23:38.353Z,96115.09
2022-12-25T19:26:07.431Z,96104.70
2022-12-25T19:28:36.048Z,96093.29
2022-12-25T19:31:07.463Z,96091.78
2022-12-25T19:33:36.514Z,96090.68
2022-12-25T19:36:06.195Z,96091.36
2022-12-25T19:38:34.352Z,96089.07
2022-12-25T19:41:09.834Z,96079.75
2022-12-25T19:43:39.328Z,96083.66
2022-12-25T19:46:08.941Z,96096.80
2022-12-25T19:48:37.099Z,96100.36
2022-12-25T19:51:13.304Z,96097.17
2022-12-25T19:53:41.268Z,96089.79
2022-12-25T19:56:09.286Z,96085.18
2022-12-25T19:58:37.248Z,96080.31
2022-12-25T20:01:08.443Z,96081.91
2022-12-25T20:03:43.675Z,96078.46
2022-12-25T20:06:20.066Z,96084.56
2022-12-25T20:08:48.787Z,96090.92
2022-12-25T20:11:17.430Z,96099.84
2022-12-25T20:13:45.853Z,96100.30
2022-12-25T20:16:13.839Z,96103.64
2022-12-25T20:18:42.192Z,96099.84
2022-12-25T20:21:14.838Z,96103.06
2022-12-25T20:23:43.470Z,96106.58
2022-12-25T20:26:12.631Z,96108.80
2022-12-25T20:28:41.905Z,96105.80
2022-12-25T20:31:12.819Z,96108.16
2022-12-25T20:33:41.092Z,96106.55
2022-12-25T20:36:09.158Z,96112.44
2022-12-25T20:38:37.135Z,96114.06
2022-12-25T20:43:55.639Z,96116.98
2022-12-25T20:46:24.626Z,96126.94
2022-12-25T20:48:53.145Z,96126.65
2022-12-25T20:51:22.990Z,96128.27
2022-12-25T20:53:51.470Z,96131.00
2022-12-25T20:56:19.923Z,96130.39
2022-12-25T20:58:47.801Z,96134.61
2022-12-25T21:01:17.634Z,96135.99
2022-12-25T21:03:46.353Z,96134.98
2022-12-25T21:06:14.277Z,96136.09
2022-12-25T21:08:42.514Z,96137.02
2022-12-25T21:11:10.860Z,96136.98
2022-12-25T21:13:42.960Z,96139.85
2022-12-25T21:16:12.226Z,96139.29
2022-12-25T21:18:40.458Z,96141.48
2022-12-25T21:21:09.138Z,96147.05
2022-12-25T21:23:38.275Z,96154.39
2022-12-25T21:26:13.330Z,96157.95
2022-12-25T21:28:41.664Z,96159.52
2022-12-25T21:31:10.080Z,96157.27
2022-12-25T21:33:54.119Z,96158.08
2022-12-25T21:36:24.122Z,96153.98
2022-12-25T21:38:53.912Z,96149.32
2022-12-25T21:41:22.022Z,96149.97
2022-12-25T21:43:50.324Z,96151.84
2022-12-25T21:46:18.714Z,96146.73
2022-12-25T21:48:46.711Z,96140.02
2022-12-25T21:51:35.631Z,96134.46
2022-12-25T21:54:04.401Z,96133.77
2022-12-25T21:56:34.428Z,96119.73
2022-12-25T21:59:06.323Z,96120.94
2022-12-25T22:01:34.615Z,96120.77
2022-12-25T22:04:04.178Z,96119.89
2022-12-25T22:06:50.902Z,96131.82
2022-12-25T22:09:19.190Z,96131.14
2022-12-25T22:12:06.157Z,96128.96
2022-12-25T22:14:57.163Z,96126.54
2022-12-25T22:17:47.329Z,96137.86
2022-12-25T22:20:22.993Z,96148.20
2022-12-25T22:22:51.422Z,96157.45
2022-12-25T22:25:19.505Z,96160.63
2022-12-25T22:27:48.091Z,96157.47
2022-12-25T22:30:20.632Z,96152.21
2022-12-25T22:32:48.896Z,96143.59
2022-12-25T22:35:17.571Z,96143.02
2022-12-25T22:37:46.004Z,96132.98
2022-12-25T22:40:15.399Z,96129.39
2022-12-25T22:42:43.405Z,96127.21
2022-12-25T22:45:12.139Z,96119.02
2022-12-25T22:47:40.145Z,96121.98
2022-12-25T22:50:08.712Z,96122.73
2022-12-25T22:52:36.779Z,96118.60
2022-12-25T22:55:05.284Z,96113.66
2022-12-25T22:57:33.460Z,96114.95
2022-12-25T23:00:01.447Z,96116.17
2022-12-25T23:02:29.929Z,96112.55
2022-12-25T23:04:58.056Z,96113.34
2022-12-25T23:07:25.930Z,96127.08
2022-12-25T23:09:53.806Z,96130.58
2022-12-25T23:12:40.517Z,96131.96
2022-12-25T23:15:08.658Z,96140.77
2022-12-25T23:17:56.271Z,96144.96
2022-12-25T23:20:42.726Z,96138.02
2022-12-25T23:23:33.722Z,96129.22
2022-12-25T23:26:08.259Z,96122.59
2022-12-25T23:28:56.259Z,96123.69
2022-12-25T23:31:42.753Z,96119.70
2022-12-25T23:34:10.904Z,96120.50
2022-12-25T23:36:38.886Z,96123.70
2022-12-25T23:39:10.035Z,96114.77
2022-12-25T23:41:43.174Z,96107.39
2022-12-25T23:44:12.113Z,96101.44
2022-12-25T23:46:41.181Z,96101.19
2022-12-25T23:49:22.387Z,96087.62
2022-12-25T23:51:52.923Z,96081.98
2022-12-25T23:54:23.353Z,96080.70
2022-12-25T23:56:51.614Z,96086.52
2022-12-25T23:59:19.715Z,96082.82
